AirNav   Everest Fuels
 
 1127 users online  

63MI Providence Hospital Heliport
Novi, Michigan, USA

GOING TO NOVI?


FAA INFORMATION EFFECTIVE 10 SEPTEMBER 2020

Location

FAA Identifier: 63MI
Lat/Long: 42-29-10.4000N 083-31-12.2600W
42-29.173333N 083-31.204333W
42.4862222,-83.5200722
(estimated)
Elevation: 970 ft. / 296 m (estimated)
From city: 2 miles SE of NOVI, MI
Time zone: UTC -4 (UTC -5 during Standard Time)
Zip code: 48374

Heliport Operations

Heliport use: Private use, MEDICAL USE.
Activation date: 03/2007
Control tower: no
ARTCC: CLEVELAND CENTER
FSS: LANSING FLIGHT SERVICE STATION
Attendance: UNATNDD
Segmented circle: no
Lights: FOR PERIMETER LGTS CALL THE ER AT 248-465-4210.

Heliport Communications

WX ASOS at PTK (12 nm N): 125.025 (248-886-8551)
WX ASOS at YIP (15 nm S): PHONE 734-961-6843
WX AWOS-3 at VLL (16 nm E): 119.475 (248-288-4649)
WX ASOS at DTW (18 nm SE): PHONE 734-955-5015
WX ASOS at ARB (19 nm SW): 134.55 (734-668-7173)

Nearby radio navigation aids

VOR radial/distance  VOR name  Freq  Var
SVMr038/5.7SALEM VORTAC114.3003W
DXOr343/17.7DETROIT VOR/DME113.4006W
CRLr357/26.4CARLETON VOR/DME115.7003W
FNTr167/30.5FLINT VORTAC116.9006W

 
NDB name  Hdg/Dist  Freq  Var  ID
GROSSE ILE332/28.341907WRYS .-. -.-- ...
TECUMSEH037/31.623906WTCU - -.-. ..-

Heliport Services

Runway Information

Helipad H1

Dimensions: 50 x 50 ft. / 15 x 15 m
Surface: concrete
Runway edge lights: PERI
Latitude: 42-29.173333N
Longitude: 083-31.204333W
Elevation: 970.0 ft.
Traffic pattern: leftleft

Heliport Ownership and Management from official FAA records

Ownership: Privately-owned
Owner: PROVIDENCE HOSPITAL & MEDICAL CTR
47601 GRAND RIVER AVE STE A-208
NOVI, MI 48375
Phone 248-465-4173
Manager: CAROL GLICK
47601 GRAND RIVER AVE STE A-208
NOVI, MI 48375
Phone 248-465-4173

Additional Remarks

FOR CD CTC DETROIT APCH AT 800-499-8181.

Instrument Procedures

There are no published instrument procedures at 63MI.

Some nearby airports with instrument procedures:

Y47 - Oakland Southwest Airport (5 nm W)
1D2 - Canton-Plymouth-Mettetal Airport (9 nm S)
KPTK - Oakland County International Airport (12 nm N)
KYIP - Willow Run Airport (15 nm S)
KVLL - Oakland/Troy Airport (16 nm E)
KDTW - Detroit Metropolitan Wayne County Airport (18 nm SE)
KARB - Ann Arbor Municipal Airport (19 nm SW)
 
Loc | Ops | Rwys | IFR | FBO | Links
Com | Nav | Svcs | Stats | Notes
Area around 63MI (Providence Hospital Heliport)
 
Road maps at: MapQuest Bing Google
 
Aerial photo
No photo
 
Sectional chart

 
Airport distance calculator
Flying to Providence Hospital Heliport? Find the distance to fly.

From to 63MI

Sunrise and sunset
Times for 24-Sep-2020
 Local
(UTC-4)
 Zulu
(UTC)
Morning civil twilight06:5810:58
Sunrise07:2611:26
Sunset19:2623:26
Evening civil twilight19:5423:54

Current date and time
Zulu (UTC)  25-Sep-2020 01:30:48
Local (UTC-4)  24-Sep-2020 21:30:48
 
METAR
KPTK 
12nm NE 
242353Z 00000KT 10SM FEW250 21/11 A2997 RMK SLPNO
KYIP 
15nm S 
250053Z 35003KT 10SM CLR 17/13 A2999 RMK AO2 SLP150 T01720128
KVLL 
16nm E 
250115Z AUTO 00000KT 10SM CLR 20/12 A3000 RMK AO2 T01980117
KDTW 
17nm SE 
250053Z 16004KT 10SM FEW250 19/13 A2998 RMK AO2 SLP152 T01940128
KARB 
19nm SW 
734-668-7173
250053Z AUTO 00000KT 9SM CLR 13/12 A2998 RMK AO2 SLP152 T01280117
KOZW 
21nm W 
250115Z AUTO 00000KT 10SM CLR 16/13 A2998 RMK AO2 T01640130
KDET 
23nm E 
250053Z 19005KT 10SM CLR 19/12 A2998 RMK AO2 SLPNO T01890117
TAF
KPTK 
12nm NE 
241721Z 2418/2518 26008KT P6SM FEW040 SCT250 FM250000 23005KT P6SM FEW200 FM251000 VRB03KT 6SM HZ SKC FM251300 19005KT P6SM SKC
KYIP 
15nm S 
241721Z 2418/2518 25008KT P6SM SCT250 FM250000 23005KT P6SM FEW200 FM251000 VRB03KT 5SM HZ SKC FM251300 19005KT P6SM SKC
KDTW 
17nm SE 
242116Z 2421/2524 27005KT P6SM SKC FM250000 23005KT P6SM FEW200 FM251000 VRB03KT 5SM HZ SKC FM251300 19005KT P6SM SKC
NOTAMs
Click for the latest NOTAMs
NOTAMs are issued by the DoD/FAA and will open in a separate window not controlled by AirNav.

 

 
 

Would you like to see your business listed on this page?

 If your business provides an interesting product or service to pilots, flight crews, aircraft, or users of the Providence Hospital Heliport, you should consider listing it here.  To start the listing process, click on the button below
 
Add a business
 

Other Pages about Providence Hospital Heliport

Update a link
 
Copyright © AirNav, LLC. All rights reserved. Privacy Policy  Contact